createdAt,value
2019-03-30T10:29:28.786Z,0.155
2019-03-30T10:29:41.295Z,0.101
2019-03-30T10:29:47.291Z,0.101
2019-03-30T10:29:53.879Z,0.089
2019-03-30T10:30:05.246Z,0.078
2019-03-30T10:30:11.886Z,0.078
2019-03-30T10:30:18.316Z,0.078
2019-03-30T10:30:24.916Z,0.078
2019-03-30T10:30:31.580Z,0.078
2019-03-30T10:30:38.138Z,0.067
2019-03-30T10:30:44.681Z,0.067
2019-03-30T10:30:51.700Z,0.067
2019-03-30T10:30:57.766Z,0.067
2019-03-30T10:31:04.356Z,0.067
2019-03-30T10:31:11.163Z,0.067
2019-03-30T10:31:18.500Z,0.067
2019-03-30T10:31:28.323Z,0.067
2019-03-30T10:31:38.110Z,0.057
2019-03-30T10:31:45.152Z,0.057
2019-03-30T10:31:52.689Z,0.057
2019-03-30T10:32:01.970Z,0.057
2019-03-30T10:32:08.056Z,0.067
2019-03-30T10:32:14.590Z,0.057
2019-03-30T10:32:21.187Z,0.057
2019-03-30T10:32:29.776Z,0.057
2019-03-30T10:32:35.962Z,0.057
2019-03-30T10:32:42.537Z,0.057
2019-03-30T10:32:51.056Z,0.057
2019-03-30T10:32:58.297Z,0.057
2019-03-30T10:33:05.416Z,0.057
2019-03-30T10:33:11.909Z,0.047
2019-03-30T10:33:18.668Z,0.047
2019-03-30T10:33:25.071Z,0.057
2019-03-30T10:33:31.638Z,0.047
2019-03-30T10:33:38.185Z,0.057
2019-03-30T10:33:45.095Z,0.047
2019-03-30T10:33:51.316Z,0.047
2019-03-30T10:33:57.988Z,0.047
2019-03-30T10:34:04.594Z,0.057
2019-03-30T10:34:11.027Z,0.047
2019-03-30T10:34:18.696Z,0.047
2019-03-30T10:34:25.765Z,0.047
2019-03-30T10:34:32.346Z,0.047
2019-03-30T10:34:40.723Z,0.057
2019-03-30T10:34:47.071Z,0.047
2019-03-30T10:34:53.672Z,0.047
2019-03-30T10:35:00.468Z,0.047
2019-03-30T10:35:06.924Z,0.047
2019-03-30T10:35:14.408Z,0.047
2019-03-30T10:35:21.593Z,0.047
2019-03-30T10:35:38.969Z,0.047
2019-03-30T10:35:46.031Z,0.047
2019-03-30T10:35:52.618Z,0.047
2019-03-30T10:35:59.138Z,0.047
2019-03-30T10:36:05.665Z,0.047
2019-03-30T10:36:12.379Z,0.047
2019-03-30T10:36:18.755Z,0.067
2019-03-30T10:36:25.295Z,0.114
2019-03-30T10:36:31.965Z,0.114
2019-03-30T10:36:38.489Z,0.078
2019-03-30T10:36:45.096Z,0.067
2019-03-30T10:36:51.637Z,0.067
2019-03-30T10:36:58.214Z,0.057
2019-03-30T10:37:04.741Z,0.057
2019-03-30T10:37:11.297Z,0.057
2019-03-30T10:37:17.842Z,0.057
2019-03-30T10:37:24.427Z,0.057
2019-03-30T10:37:30.957Z,0.067
2019-03-30T10:37:37.544Z,0.067
2019-03-30T10:37:44.100Z,0.067
2019-03-30T10:37:50.668Z,0.057
2019-03-30T10:37:57.272Z,0.057
2019-03-30T10:38:03.867Z,0.057
2019-03-30T10:38:11.766Z,0.089
2019-03-30T10:38:18.875Z,0.057
2019-03-30T10:38:28.302Z,0.067
2019-03-30T10:38:34.960Z,0.067
2019-03-30T10:38:41.578Z,0.057
2019-03-30T10:38:50.765Z,0.057
2019-03-30T10:38:58.908Z,0.057
2019-03-30T10:39:08.185Z,0.057
2019-03-30T10:39:14.323Z,0.047
2019-03-30T10:39:21.071Z,0.047
2019-03-30T10:39:30.386Z,0.057
2019-03-30T10:39:37.324Z,0.047
2019-03-30T10:39:44.681Z,0.047
2019-03-30T10:39:51.992Z,0.047
2019-03-30T10:40:04.278Z,0.047
2019-03-30T10:40:11.536Z,0.047
2019-03-30T10:40:21.911Z,0.047
2019-03-30T10:40:35.762Z,0.047
2019-03-30T10:40:42.689Z,0.047
2019-03-30T10:40:50.173Z,0.047
2019-03-30T10:41:00.239Z,0.047
2019-03-30T10:41:10.566Z,0.047
2019-03-30T10:41:17.703Z,0.047
2019-03-30T10:41:24.887Z,0.047
2019-03-30T10:41:32.739Z,0.047
2019-03-30T10:41:40.164Z,0.047
2019-03-30T10:41:46.377Z,0.047
2019-03-30T10:41:53.276Z,0.047
2019-03-30T10:42:00.543Z,0.047
2019-03-30T10:42:13.992Z,0.047
2019-03-30T10:42:26.383Z,0.047
2019-03-30T10:42:36.148Z,0.047
2019-03-30T10:42:46.361Z,0.047
2019-03-30T10:42:54.240Z,0.047
2019-03-30T10:43:02.764Z,0.047
2019-03-30T10:43:09.441Z,0.047
2019-03-30T10:43:17.225Z,0.047
2019-03-30T10:43:30.022Z,0.038
2019-03-30T10:43:38.317Z,0.038
2019-03-30T10:43:47.287Z,0.038
2019-03-30T10:43:58.554Z,0.038
2019-03-30T10:44:05.148Z,0.038
2019-03-30T10:44:11.680Z,0.038
2019-03-30T10:44:19.273Z,0.038
2019-03-30T10:44:33.420Z,0.047
2019-03-30T10:44:42.913Z,0.038
2019-03-30T10:44:50.584Z,0.038
2019-03-30T10:44:59.203Z,0.038
2019-03-30T10:45:05.949Z,0.038
2019-03-30T10:45:12.108Z,0.047
2019-03-30T10:45:18.279Z,0.047
2019-03-30T10:45:24.858Z,0.047
2019-03-30T10:45:31.624Z,0.038
2019-03-30T10:45:39.074Z,0.038
2019-03-30T10:45:47.114Z,0.038
2019-03-30T10:45:56.239Z,0.038
2019-03-30T10:46:05.270Z,0.038
2019-03-30T10:46:16.979Z,0.038
2019-03-30T10:46:26.937Z,0.038
2019-03-30T10:46:33.925Z,0.038
2019-03-30T10:46:42.971Z,0.038
2019-03-30T10:46:54.404Z,0.038
2019-03-30T10:47:06.441Z,0.038
2019-03-30T10:47:13.471Z,0.038
2019-03-30T10:47:23.747Z,0.038
2019-03-30T10:47:31.683Z,0.038
2019-03-30T10:47:40.291Z,0.038
2019-03-30T10:47:48.265Z,0.038
2019-03-30T10:47:57.290Z,0.038
2019-03-30T10:48:05.452Z,0.038
2019-03-30T10:48:12.695Z,0.038
2019-03-30T10:48:23.053Z,0.038
2019-03-30T10:48:31.229Z,0.038
2019-03-30T10:48:38.567Z,0.038
2019-03-30T10:48:48.474Z,0.038
2019-03-30T10:49:00.445Z,0.038
2019-03-30T10:49:07.240Z,0.038
2019-03-30T10:49:14.565Z,0.038
2019-03-30T10:49:22.045Z,0.038
2019-03-30T10:49:28.060Z,0.038
2019-03-30T10:49:34.758Z,0.038
2019-03-30T10:49:41.335Z,0.038
2019-03-30T10:49:47.813Z,0.038
2019-03-30T10:49:54.318Z,0.038
2019-03-30T10:50:02.251Z,0.038
2019-03-30T10:50:09.113Z,0.038
2019-03-30T10:50:15.584Z,0.038
2019-03-30T10:50:22.172Z,0.038
2019-03-30T10:50:28.814Z,0.038
2019-03-30T10:50:35.425Z,0.038
2019-03-30T10:50:42.094Z,0.038
2019-03-30T10:50:48.977Z,0.038
2019-03-30T10:50:55.129Z,0.038
2019-03-30T10:51:01.659Z,0.038
2019-03-30T10:51:08.262Z,0.038
2019-03-30T10:51:15.828Z,0.038
2019-03-30T10:51:23.548Z,0.038
2019-03-30T10:51:29.532Z,0.038
2019-03-30T10:51:36.040Z,0.038
2019-03-30T10:51:45.395Z,0.038
2019-03-30T10:51:55.267Z,0.038
2019-03-30T10:52:02.209Z,0.038
2019-03-30T10:52:09.824Z,0.038
2019-03-30T10:52:18.139Z,0.038
2019-03-30T10:52:28.692Z,0.038
2019-03-30T10:52:34.895Z,0.038
2019-03-30T10:52:41.527Z,0.038
2019-03-30T10:52:47.979Z,0.038
2019-03-30T10:52:54.753Z,0.038
2019-03-30T10:53:01.177Z,0.038
2019-03-30T10:53:07.724Z,0.038
2019-03-30T10:53:14.643Z,0.038
2019-03-30T10:53:26.485Z,0.038
2019-03-30T10:53:32.243Z,0.038
2019-03-30T10:53:38.819Z,0.038
2019-03-30T10:53:45.464Z,0.038
2019-03-30T10:53:52.054Z,0.038
2019-03-30T10:53:58.906Z,0.038
2019-03-30T10:54:05.205Z,0.038
2019-03-30T10:54:11.772Z,0.038
2019-03-30T10:54:18.621Z,0.038
2019-03-30T10:54:25.106Z,0.038
2019-03-30T10:54:31.464Z,0.038
2019-03-30T10:54:54.084Z,0.038
2019-03-30T10:55:00.796Z,0.038
2019-03-30T10:55:07.190Z,0.038
2019-03-30T10:55:13.668Z,0.038
2019-03-30T10:55:20.255Z,0.038
2019-03-30T10:55:26.766Z,0.038
2019-03-30T10:55:34.447Z,0.038
2019-03-30T10:55:41.646Z,0.038
2019-03-30T10:55:48.218Z,0.038
2019-03-30T10:55:54.750Z,0.038
2019-03-30T10:56:01.446Z,0.038
2019-03-30T10:56:08.112Z,0.038
2019-03-30T10:56:14.561Z,0.038
2019-03-30T10:56:21.010Z,0.03
2019-03-30T10:56:27.592Z,0.038
2019-03-30T10:56:34.168Z,0.038
2019-03-30T10:56:40.792Z,0.038
2019-03-30T10:56:47.400Z,0.038
2019-03-30T10:56:56.869Z,0.038
2019-03-30T10:57:03.801Z,0.038
2019-03-30T10:57:12.800Z,0.038
2019-03-30T10:57:18.531Z,0.038
2019-03-30T10:57:26.012Z,0.038
2019-03-30T10:57:33.166Z,0.038
2019-03-30T10:57:39.764Z,0.038
2019-03-30T10:57:46.398Z,0.038
2019-03-30T10:57:53.226Z,0.038
2019-03-30T10:57:59.954Z,0.038
2019-03-30T10:58:05.929Z,0.038
2019-03-30T10:58:12.638Z,0.038
2019-03-30T10:58:19.378Z,0.038
2019-03-30T10:58:28.989Z,0.038
2019-03-30T10:58:38.552Z,0.038
2019-03-30T10:58:45.271Z,0.038
2019-03-30T10:58:52.950Z,0.038
2019-03-30T10:58:59.922Z,0.038
2019-03-30T10:59:06.500Z,0.038
2019-03-30T10:59:13.193Z,0.038
2019-03-30T10:59:19.668Z,0.038
2019-03-30T10:59:26.326Z,0.038
2019-03-30T10:59:32.927Z,0.038
2019-03-30T10:59:39.395Z,0.038
2019-03-30T10:59:46.028Z,0.038
2019-03-30T10:59:52.586Z,0.038
2019-03-30T10:59:59.182Z,0.03
2019-03-30T11:00:05.746Z,0.038
2019-03-30T11:00:12.332Z,0.03
2019-03-30T11:00:22.753Z,0.038
2019-03-30T11:00:28.654Z,0.038
2019-03-30T11:00:35.130Z,0.03
2019-03-30T11:00:41.981Z,0.038
2019-03-30T11:00:48.306Z,0.03
2019-03-30T11:00:54.845Z,0.038
2019-03-30T11:01:01.569Z,0.038
2019-03-30T11:01:08.014Z,0.03
2019-03-30T11:01:17.239Z,0.03
2019-03-30T11:01:24.357Z,0.03
2019-03-30T11:01:30.958Z,0.03
2019-03-30T11:01:37.531Z,0.03
2019-03-30T11:01:44.175Z,0.03
2019-03-30T11:01:50.656Z,0.03
2019-03-30T11:01:57.226Z,0.03
2019-03-30T11:02:03.944Z,0.03
2019-03-30T11:02:19.564Z,0.03
2019-03-30T11:02:26.784Z,0.03
2019-03-30T11:02:34.286Z,0.038
2019-03-30T11:02:41.308Z,0.038
2019-03-30T11:02:47.880Z,0.038
2019-03-30T11:02:54.408Z,0.038
2019-03-30T11:03:01.229Z,0.038
2019-03-30T11:03:07.716Z,0.038
2019-03-30T11:03:14.165Z,0.038
2019-03-30T11:03:20.815Z,0.038
2019-03-30T11:03:27.486Z,0.038
2019-03-30T11:03:34.023Z,0.03
2019-03-30T11:03:40.377Z,0.03
2019-03-30T11:03:47.017Z,0.038
2019-03-30T11:03:53.610Z,0.03
2019-03-30T11:04:00.422Z,0.03
2019-03-30T11:04:06.658Z,0.03
2019-03-30T11:04:13.240Z,0.03
2019-03-30T11:04:19.822Z,0.038
2019-03-30T11:04:26.345Z,0.038
2019-03-30T11:04:37.871Z,0.03
2019-03-30T11:04:44.268Z,0.03
2019-03-30T11:04:50.933Z,0.038
2019-03-30T11:04:57.768Z,0.038
2019-03-30T11:05:04.107Z,0.03
2019-03-30T11:05:10.667Z,0.03
2019-03-30T11:05:17.190Z,0.03
2019-03-30T11:05:23.681Z,0.038
2019-03-30T11:05:30.306Z,0.038
2019-03-30T11:05:36.892Z,0.03
2019-03-30T11:05:43.420Z,0.03
2019-03-30T11:05:50.003Z,0.038
2019-03-30T11:05:56.773Z,0.03
2019-03-30T11:06:03.474Z,0.03
2019-03-30T11:06:09.791Z,0.038
2019-03-30T11:06:19.330Z,0.03
2019-03-30T11:06:26.073Z,0.03
2019-03-30T11:06:35.611Z,0.03
2019-03-30T11:06:42.456Z,0.03
2019-03-30T11:06:51.499Z,0.03
2019-03-30T11:06:57.132Z,0.038
2019-03-30T11:07:04.890Z,0.03
2019-03-30T11:07:11.833Z,0.03
2019-03-30T11:07:18.499Z,0.03
2019-03-30T11:07:25.035Z,0.03
2019-03-30T11:07:31.677Z,0.03
2019-03-30T11:07:38.318Z,0.03
2019-03-30T11:07:44.696Z,0.03
2019-03-30T11:07:51.279Z,0.03
2019-03-30T11:07:57.825Z,0.03
2019-03-30T11:08:04.424Z,0.03
2019-03-30T11:08:11.055Z,0.03
2019-03-30T11:08:19.400Z,0.03
2019-03-30T11:08:25.764Z,0.03
2019-03-30T11:08:32.410Z,0.038
2019-03-30T11:08:39.056Z,0.03
2019-03-30T11:08:45.429Z,0.038
2019-03-30T11:08:52.010Z,0.038
2019-03-30T11:08:58.678Z,0.038
2019-03-30T11:09:05.321Z,0.038
2019-03-30T11:09:11.803Z,0.03
2019-03-30T11:09:18.340Z,0.038
2019-03-30T11:09:24.910Z,0.03
2019-03-30T11:09:31.559Z,0.03
2019-03-30T11:09:37.981Z,0.038
2019-03-30T11:09:45.089Z,0.03
2019-03-30T11:09:51.255Z,0.03
2019-03-30T11:09:57.805Z,0.038
2019-03-30T11:10:04.698Z,0.038
2019-03-30T11:10:10.817Z,0.03
2019-03-30T11:10:17.455Z,0.03
2019-03-30T11:10:23.916Z,0.03
2019-03-30T11:10:34.483Z,0.03
2019-03-30T11:10:40.260Z,0.03
2019-03-30T11:10:46.826Z,0.03
2019-03-30T11:10:53.394Z,0.03
2019-03-30T11:10:59.973Z,0.038
2019-03-30T11:11:06.540Z,0.038
2019-03-30T11:11:13.089Z,0.038
2019-03-30T11:11:19.626Z,0.038
2019-03-30T11:11:26.250Z,0.038
2019-03-30T11:11:32.876Z,0.038
2019-03-30T11:11:39.322Z,0.038
2019-03-30T11:11:45.968Z,0.038
2019-03-30T11:11:52.554Z,0.038
2019-03-30T11:11:59.084Z,0.038
2019-03-30T11:12:05.700Z,0.038
2019-03-30T11:12:12.261Z,0.038
2019-03-30T11:12:18.771Z,0.03
2019-03-30T11:12:25.418Z,0.03
2019-03-30T11:12:31.944Z,0.03
2019-03-30T11:12:38.473Z,0.03
2019-03-30T11:12:46.059Z,0.03
2019-03-30T11:12:53.235Z,0.03
2019-03-30T11:12:59.739Z,0.03
2019-03-30T11:13:06.286Z,0.03
2019-03-30T11:13:12.871Z,0.03
2019-03-30T11:13:19.452Z,0.03
2019-03-30T11:13:26.007Z,0.038
2019-03-30T11:13:32.621Z,0.038
2019-03-30T11:13:39.215Z,0.03
2019-03-30T11:13:45.702Z,0.038
2019-03-30T11:13:52.297Z,0.038
2019-03-30T11:13:58.861Z,0.03
2019-03-30T11:14:05.427Z,0.03
2019-03-30T11:14:11.981Z,0.03
2019-03-30T11:14:18.554Z,0.03
2019-03-30T11:14:25.158Z,0.038
2019-03-30T11:14:31.727Z,0.03
2019-03-30T11:14:38.293Z,0.03
2019-03-30T11:14:44.897Z,0.03
2019-03-30T11:14:51.374Z,0.03
2019-03-30T11:15:06.604Z,0.03
2019-03-30T11:15:12.548Z,0.03
2019-03-30T11:15:19.245Z,0.03
2019-03-30T11:15:25.730Z,0.03
2019-03-30T11:15:35.346Z,0.03
2019-03-30T11:15:42.066Z,0.03
2019-03-30T11:15:48.599Z,0.03
2019-03-30T11:15:55.190Z,0.03
2019-03-30T11:16:01.768Z,0.03
2019-03-30T11:16:08.343Z,0.038
2019-03-30T11:16:14.893Z,0.03
2019-03-30T11:16:21.503Z,0.038
2019-03-30T11:16:28.035Z,0.03
2019-03-30T11:16:34.593Z,0.038
2019-03-30T11:16:41.281Z,0.03
2019-03-30T11:16:47.777Z,0.03
2019-03-30T11:16:54.415Z,0.03
2019-03-30T11:17:00.860Z,0.03
2019-03-30T11:17:07.497Z,0.03
2019-03-30T11:17:14.044Z,0.03
2019-03-30T11:17:20.674Z,0.038
2019-03-30T11:17:27.156Z,0.03
2019-03-30T11:17:33.722Z,0.03
2019-03-30T11:17:40.293Z,0.03
2019-03-30T11:17:47.330Z,0.03
2019-03-30T11:17:53.423Z,0.03
2019-03-30T11:17:59.981Z,0.03
2019-03-30T11:18:06.607Z,0.03
2019-03-30T11:18:14.069Z,0.03
2019-03-30T11:40:02.576Z,0.03
2019-03-30T11:40:08.657Z,0.03
2019-03-30T11:40:15.472Z,0.03
2019-03-30T11:40:21.850Z,0.03
2019-03-30T11:40:28.398Z,0.03
2019-03-30T11:40:35.184Z,0.038
2019-03-30T11:40:41.464Z,0.038
2019-03-30T11:40:48.164Z,0.038
2019-03-30T11:40:54.601Z,0.038
2019-03-30T11:41:01.173Z,0.038
2019-03-30T11:41:07.810Z,0.078
2019-03-30T11:41:14.401Z,0.078
2019-03-30T11:41:20.965Z,0.067
2019-03-30T11:41:27.483Z,0.057
2019-03-30T11:41:34.041Z,0.057
2019-03-30T11:41:40.620Z,0.057
2019-03-30T11:41:47.165Z,0.057
2019-03-30T11:41:53.742Z,0.047
2019-03-30T11:42:00.341Z,0.047
2019-03-30T11:42:06.906Z,0.038
2019-03-30T11:42:13.405Z,0.047
2019-03-30T11:42:22.788Z,0.047
2019-03-30T11:42:29.844Z,0.047
2019-03-30T11:42:36.324Z,0.047
2019-03-30T11:42:42.929Z,0.038
2019-03-30T11:42:49.465Z,0.047
2019-03-30T11:42:56.322Z,0.038
2019-03-30T11:43:14.469Z,0.047
2019-03-30T11:43:21.847Z,0.047
2019-03-30T11:43:29.041Z,0.038
2019-03-30T11:43:35.105Z,0.038
2019-03-30T11:43:41.691Z,0.038
2019-03-30T11:43:48.282Z,0.038
2019-03-30T11:43:54.884Z,0.038
2019-03-30T11:44:01.610Z,0.038
2019-03-30T11:44:09.131Z,0.038
2019-03-30T11:44:16.340Z,0.047
2019-03-30T11:44:22.801Z,0.047
